sensor_id;sensor_type;location;lat;lon;timestamp;pressure;altitude;pressure_sealevel;temperature;humidity
61026;BME280;46911;32.650;-16.902;2022-08-21T00:00:32;101769.44;;;20.63;63.88
61026;BME280;46911;32.650;-16.902;2022-08-21T00:02:33;101777.72;;;20.61;64.18
61026;BME280;46911;32.650;-16.902;2022-08-21T00:04:34;101788.16;;;20.56;64.29
61026;BME280;46911;32.650;-16.902;2022-08-21T00:06:35;101796.56;;;20.53;64.39
61026;BME280;46911;32.650;-16.902;2022-08-21T00:08:35;101802.00;;;20.53;64.85
61026;BME280;46911;32.650;-16.902;2022-08-21T00:10:36;101806.97;;;20.48;65.51
61026;BME280;46911;32.650;-16.902;2022-08-21T00:12:40;101808.84;;;20.47;65.39
61026;BME280;46911;32.650;-16.902;2022-08-21T00:14:41;101805.25;;;20.47;64.25
61026;BME280;46911;32.650;-16.902;2022-08-21T00:16:41;101809.69;;;20.48;63.74
61026;BME280;46911;32.650;-16.902;2022-08-21T00:18:44;101801.41;;;20.49;63.59
61026;BME280;46911;32.650;-16.902;2022-08-21T00:20:45;101803.97;;;20.51;63.42
61026;BME280;46911;32.650;-16.902;2022-08-21T00:22:46;101794.28;;;20.48;62.77
61026;BME280;46911;32.650;-16.902;2022-08-21T00:24:52;101788.00;;;20.48;61.94
61026;BME280;46911;32.650;-16.902;2022-08-21T00:26:53;101771.75;;;20.48;61.75
61026;BME280;46911;32.650;-16.902;2022-08-21T00:28:53;101776.59;;;20.44;61.62
61026;BME280;46911;32.650;-16.902;2022-08-21T00:30:57;101763.19;;;20.43;61.41
61026;BME280;46911;32.650;-16.902;2022-08-21T00:33:01;101759.78;;;20.40;61.33
61026;BME280;46911;32.650;-16.902;2022-08-21T00:35:02;101744.38;;;20.41;61.48
61026;BME280;46911;32.650;-16.902;2022-08-21T00:37:03;101735.50;;;20.39;61.63
61026;BME280;46911;32.650;-16.902;2022-08-21T00:39:05;101737.38;;;20.38;62.09
61026;BME280;46911;32.650;-16.902;2022-08-21T00:41:08;101741.09;;;20.37;62.16
61026;BME280;46911;32.650;-16.902;2022-08-21T00:43:12;101738.53;;;20.36;63.05
61026;BME280;46911;32.650;-16.902;2022-08-21T00:45:13;101735.66;;;20.37;63.70
61026;BME280;46911;32.650;-16.902;2022-08-21T00:47:14;101722.13;;;20.37;64.28
61026;BME280;46911;32.650;-16.902;2022-08-21T00:49:15;101723.97;;;20.37;64.67
61026;BME280;46911;32.650;-16.902;2022-08-21T00:51:20;101719.69;;;20.34;64.84
61026;BME280;46911;32.650;-16.902;2022-08-21T00:53:26;101718.97;;;20.32;64.84
61026;BME280;46911;32.650;-16.902;2022-08-21T00:55:27;101718.13;;;20.32;65.12
61026;BME280;46911;32.650;-16.902;2022-08-21T00:57:42;101710.44;;;20.27;64.96
61026;BME280;46911;32.650;-16.902;2022-08-21T00:59:47;101709.16;;;20.31;64.69
61026;BME280;46911;32.650;-16.902;2022-08-21T01:01:49;101711.44;;;20.36;64.03
61026;BME280;46911;32.650;-16.902;2022-08-21T01:03:50;101710.44;;;20.37;63.49
61026;BME280;46911;32.650;-16.902;2022-08-21T01:05:51;101716.00;;;20.35;63.14
61026;BME280;46911;32.650;-16.902;2022-08-21T01:07:52;101711.88;;;20.31;62.78
61026;BME280;46911;32.650;-16.902;2022-08-21T01:09:56;101703.03;;;20.29;61.84
61026;BME280;46911;32.650;-16.902;2022-08-21T01:11:57;101703.03;;;20.29;61.34
61026;BME280;46911;32.650;-16.902;2022-08-21T01:13:59;101704.00;;;20.28;61.11
61026;BME280;46911;32.650;-16.902;2022-08-21T01:16:04;101710.44;;;20.27;61.03
61026;BME280;46911;32.650;-16.902;2022-08-21T01:18:08;101707.75;;;20.27;60.98
61026;BME280;46911;32.650;-16.902;2022-08-21T01:20:10;101708.13;;;20.32;61.04
61026;BME280;46911;32.650;-16.902;2022-08-21T01:22:12;101697.44;;;20.31;60.81
61026;BME280;46911;32.650;-16.902;2022-08-21T01:24:13;101696.16;;;20.35;61.28
61026;BME280;46911;32.650;-16.902;2022-08-21T01:26:15;101699.59;;;20.37;60.97
61026;BME280;46911;32.650;-16.902;2022-08-21T01:28:17;101699.03;;;20.33;61.28
61026;BME280;46911;32.650;-16.902;2022-08-21T01:30:19;101696.16;;;20.35;61.36
61026;BME280;46911;32.650;-16.902;2022-08-21T01:32:22;101701.72;;;20.33;61.47
61026;BME280;46911;32.650;-16.902;2022-08-21T01:34:23;101699.31;;;20.30;61.43
61026;BME280;46911;32.650;-16.902;2022-08-21T01:36:28;101709.16;;;20.31;61.72
61026;BME280;46911;32.650;-16.902;2022-08-21T01:38:29;101709.44;;;20.28;62.06
61026;BME280;46911;32.650;-16.902;2022-08-21T01:40:30;101712.88;;;20.30;62.47
61026;BME280;46911;32.650;-16.902;2022-08-21T01:42:31;101711.88;;;20.31;62.44
61026;BME280;46911;32.650;-16.902;2022-08-21T01:44:31;101708.44;;;20.29;62.46
61026;BME280;46911;32.650;-16.902;2022-08-21T01:46:34;101702.19;;;20.29;62.91
61026;BME280;46911;32.650;-16.902;2022-08-21T01:48:35;101694.91;;;20.29;62.73
61026;BME280;46911;32.650;-16.902;2022-08-21T01:50:36;101693.06;;;20.30;63.04
61026;BME280;46911;32.650;-16.902;2022-08-21T01:52:40;101689.47;;;20.29;62.69
61026;BME280;46911;32.650;-16.902;2022-08-21T01:54:41;101688.78;;;20.27;62.54
61026;BME280;46911;32.650;-16.902;2022-08-21T01:56:45;101682.63;;;20.25;62.62
61026;BME280;46911;32.650;-16.902;2022-08-21T01:58:51;101671.94;;;20.23;62.07
61026;BME280;46911;32.650;-16.902;2022-08-21T02:00:52;101666.53;;;20.23;61.89
61026;BME280;46911;32.650;-16.902;2022-08-21T02:02:53;101667.09;;;20.27;62.79
61026;BME280;46911;32.650;-16.902;2022-08-21T02:04:59;101672.38;;;20.29;63.38
61026;BME280;46911;32.650;-16.902;2022-08-21T02:07:03;101668.78;;;20.28;63.04
61026;BME280;46911;32.650;-16.902;2022-08-21T02:09:05;101670.50;;;20.29;62.85
61026;BME280;46911;32.650;-16.902;2022-08-21T02:11:06;101674.22;;;20.28;63.04
61026;BME280;46911;32.650;-16.902;2022-08-21T02:13:07;101676.81;;;20.30;62.95
61026;BME280;46911;32.650;-16.902;2022-08-21T02:15:09;101675.09;;;20.29;62.82
61026;BME280;46911;32.650;-16.902;2022-08-21T02:17:10;101674.94;;;20.30;62.69
61026;BME280;46911;32.650;-16.902;2022-08-21T02:19:11;101679.34;;;20.31;62.31
61026;BME280;46911;32.650;-16.902;2022-08-21T02:21:15;101688.19;;;20.33;62.34
61026;BME280;46911;32.650;-16.902;2022-08-21T02:23:16;101688.34;;;20.32;62.49
61026;BME280;46911;32.650;-16.902;2022-08-21T02:25:20;101677.06;;;20.27;62.61
61026;BME280;46911;32.650;-16.902;2022-08-21T02:27:24;101679.78;;;20.27;63.13
61026;BME280;46911;32.650;-16.902;2022-08-21T02:29:25;101678.81;;;20.18;62.88
61026;BME280;46911;32.650;-16.902;2022-08-21T02:31:26;101677.66;;;20.11;62.53
61026;BME280;46911;32.650;-16.902;2022-08-21T02:33:27;101679.09;;;20.05;61.95
61026;BME280;46911;32.650;-16.902;2022-08-21T02:35:30;101683.09;;;20.01;61.02
61026;BME280;46911;32.650;-16.902;2022-08-21T02:37:36;101679.53;;;20.00;59.78
61026;BME280;46911;32.650;-16.902;2022-08-21T02:39:42;101691.63;;;20.06;58.71
61026;BME280;46911;32.650;-16.902;2022-08-21T02:41:43;101696.19;;;20.05;58.37
61026;BME280;46911;32.650;-16.902;2022-08-21T02:43:46;101696.63;;;20.01;58.66
61026;BME280;46911;32.650;-16.902;2022-08-21T02:45:47;101696.03;;;19.97;59.59
61026;BME280;46911;32.650;-16.902;2022-08-21T02:47:49;101699.34;;;19.91;59.91
61026;BME280;46911;32.650;-16.902;2022-08-21T02:49:52;101707.03;;;19.86;60.86
61026;BME280;46911;32.650;-16.902;2022-08-21T02:51:53;101712.59;;;19.84;62.30
61026;BME280;46911;32.650;-16.902;2022-08-21T02:53:54;101702.00;;;19.81;61.28
61026;BME280;46911;32.650;-16.902;2022-08-21T02:55:56;101700.41;;;19.79;60.44
61026;BME280;46911;32.650;-16.902;2022-08-21T02:58:00;101695.00;;;19.79;59.88
61026;BME280;46911;32.650;-16.902;2022-08-21T03:00:04;101686.47;;;19.73;59.58
61026;BME280;46911;32.650;-16.902;2022-08-21T03:02:05;101686.72;;;19.70;59.56
61026;BME280;46911;32.650;-16.902;2022-08-21T03:04:08;101673.50;;;19.67;59.15
61026;BME280;46911;32.650;-16.902;2022-08-21T03:06:09;101665.66;;;19.64;58.70
61026;BME280;46911;32.650;-16.902;2022-08-21T03:08:11;101676.75;;;19.61;58.44
61026;BME280;46911;32.650;-16.902;2022-08-21T03:10:15;101667.06;;;19.58;58.11
61026;BME280;46911;32.650;-16.902;2022-08-21T03:12:16;101673.59;;;19.56;58.16
61026;BME280;46911;32.650;-16.902;2022-08-21T03:14:17;101676.59;;;19.53;58.58
61026;BME280;46911;32.650;-16.902;2022-08-21T03:16:20;101668.75;;;19.50;58.83
61026;BME280;46911;32.650;-16.902;2022-08-21T03:18:23;101668.03;;;19.48;58.71
61026;BME280;46911;32.650;-16.902;2022-08-21T03:20:27;101666.22;;;19.48;57.63
61026;BME280;46911;32.650;-16.902;2022-08-21T03:22:28;101674.19;;;19.50;57.09
61026;BME280;46911;32.650;-16.902;2022-08-21T03:24:32;101665.78;;;19.53;56.31
61026;BME280;46911;32.650;-16.902;2022-08-21T03:26:32;101658.38;;;19.55;56.31
61026;BME280;46911;32.650;-16.902;2022-08-21T03:28:33;101664.50;;;19.57;55.99
61026;BME280;46911;32.650;-16.902;2022-08-21T03:30:34;101661.63;;;19.58;56.24
61026;BME280;46911;32.650;-16.902;2022-08-21T03:32:34;101667.78;;;19.61;55.91
61026;BME280;46911;32.650;-16.902;2022-08-21T03:34:37;101662.94;;;19.64;55.40
61026;BME280;46911;32.650;-16.902;2022-08-21T03:36:37;101665.38;;;19.67;55.39
61026;BME280;46911;32.650;-16.902;2022-08-21T03:38:38;101660.53;;;19.71;54.21
61026;BME280;46911;32.650;-16.902;2022-08-21T03:40:39;101668.66;;;19.71;54.17
61026;BME280;46911;32.650;-16.902;2022-08-21T03:42:40;101673.94;;;19.72;54.62
61026;BME280;46911;32.650;-16.902;2022-08-21T03:44:40;101679.47;;;19.71;54.12
61026;BME280;46911;32.650;-16.902;2022-08-21T03:46:45;101687.59;;;19.71;54.53
61026;BME280;46911;32.650;-16.902;2022-08-21T03:48:46;101697.31;;;19.73;54.16
61026;BME280;46911;32.650;-16.902;2022-08-21T03:50:47;101704.13;;;19.78;53.50
61026;BME280;46911;32.650;-16.902;2022-08-21T03:52:49;101704.72;;;19.81;53.50
61026;BME280;46911;32.650;-16.902;2022-08-21T03:54:54;101713.44;;;19.85;53.09
61026;BME280;46911;32.650;-16.902;2022-08-21T03:56:55;101719.44;;;19.88;52.49
61026;BME280;46911;32.650;-16.902;2022-08-21T03:58:59;101725.28;;;19.94;52.23
61026;BME280;46911;32.650;-16.902;2022-08-21T04:01:00;101729.41;;;19.98;51.38
61026;BME280;46911;32.650;-16.902;2022-08-21T04:03:03;101726.13;;;20.04;51.20
61026;BME280;46911;32.650;-16.902;2022-08-21T04:05:04;101724.56;;;20.11;50.99
61026;BME280;46911;32.650;-16.902;2022-08-21T04:07:05;101728.41;;;20.18;49.51
61026;BME280;46911;32.650;-16.902;2022-08-21T04:09:06;101714.31;;;20.24;49.40
61026;BME280;46911;32.650;-16.902;2022-08-21T04:11:07;101717.97;;;20.33;47.91
61026;BME280;46911;32.650;-16.902;2022-08-21T04:13:10;101711.00;;;20.40;47.28
61026;BME280;46911;32.650;-16.902;2022-08-21T04:15:12;101717.41;;;20.49;45.98
61026;BME280;46911;32.650;-16.902;2022-08-21T04:17:13;101725.81;;;20.56;46.13
61026;BME280;46911;32.650;-16.902;2022-08-21T04:19:14;101733.09;;;20.55;46.20
61026;BME280;46911;32.650;-16.902;2022-08-21T04:21:15;101723.09;;;20.56;46.66
61026;BME280;46911;32.650;-16.902;2022-08-21T04:23:17;101723.81;;;20.58;47.44
61026;BME280;46911;32.650;-16.902;2022-08-21T04:25:21;101726.38;;;20.60;48.86
61026;BME280;46911;32.650;-16.902;2022-08-21T04:27:22;101731.66;;;20.61;49.41
61026;BME280;46911;32.650;-16.902;2022-08-21T04:29:22;101729.78;;;20.62;49.19
61026;BME280;46911;32.650;-16.902;2022-08-21T04:31:23;101729.66;;;20.63;48.79
61026;BME280;46911;32.650;-16.902;2022-08-21T04:33:25;101727.63;;;20.65;48.46
61026;BME280;46911;32.650;-16.902;2022-08-21T04:35:28;101734.63;;;20.68;48.04
61026;BME280;46911;32.650;-16.902;2022-08-21T04:37:28;101731.22;;;20.66;48.15
61026;BME280;46911;32.650;-16.902;2022-08-21T04:39:31;101735.78;;;20.65;47.75
61026;BME280;46911;32.650;-16.902;2022-08-21T04:41:32;101744.91;;;20.64;47.22
61026;BME280;46911;32.650;-16.902;2022-08-21T04:43:32;101759.47;;;20.63;47.64
61026;BME280;46911;32.650;-16.902;2022-08-21T04:45:35;101763.03;;;20.64;47.56
61026;BME280;46911;32.650;-16.902;2022-08-21T04:47:42;101781.28;;;20.62;47.46
61026;BME280;46911;32.650;-16.902;2022-08-21T04:49:42;101787.88;;;20.59;48.23
61026;BME280;46911;32.650;-16.902;2022-08-21T04:51:43;101790.59;;;20.59;49.81
61026;BME280;46911;32.650;-16.902;2022-08-21T04:53:48;101803.28;;;20.58;51.14
61026;BME280;46911;32.650;-16.902;2022-08-21T04:55:49;101808.09;;;20.55;52.11
61026;BME280;46911;32.650;-16.902;2022-08-21T04:57:52;101815.84;;;20.60;54.94
61026;BME280;46911;32.650;-16.902;2022-08-21T04:59:56;101819.97;;;20.54;54.85
61026;BME280;46911;32.650;-16.902;2022-08-21T05:02:02;101822.94;;;20.51;56.29
61026;BME280;46911;32.650;-16.902;2022-08-21T05:04:04;101824.66;;;20.52;58.29
61026;BME280;46911;32.650;-16.902;2022-08-21T05:06:06;101824.38;;;20.55;60.45
61026;BME280;46911;32.650;-16.902;2022-08-21T05:08:07;101822.81;;;20.62;61.47
61026;BME280;46911;32.650;-16.902;2022-08-21T05:10:10;101815.38;;;20.64;62.32
61026;BME280;46911;32.650;-16.902;2022-08-21T05:12:13;101804.16;;;20.59;62.25
61026;BME280;46911;32.650;-16.902;2022-08-21T05:14:16;101794.28;;;20.58;58.87
61026;BME280;46911;32.650;-16.902;2022-08-21T05:16:16;101777.31;;;20.56;55.17
61026;BME280;46911;32.650;-16.902;2022-08-21T05:18:17;101774.31;;;20.59;52.67
61026;BME280;46911;32.650;-16.902;2022-08-21T05:20:18;101763.47;;;20.59;52.26
61026;BME280;46911;32.650;-16.902;2022-08-21T05:22:22;101761.63;;;20.60;52.71
61026;BME280;46911;32.650;-16.902;2022-08-21T05:24:24;101760.78;;;20.59;52.56
61026;BME280;46911;32.650;-16.902;2022-08-21T05:26:25;101752.91;;;20.56;52.66
61026;BME280;46911;32.650;-16.902;2022-08-21T05:28:28;101746.94;;;20.52;52.50
61026;BME280;46911;32.650;-16.902;2022-08-21T05:30:28;101754.19;;;20.52;53.22
61026;BME280;46911;32.650;-16.902;2022-08-21T05:32:29;101750.91;;;20.48;53.46
61026;BME280;46911;32.650;-16.902;2022-08-21T05:34:32;101758.34;;;20.46;53.62
61026;BME280;46911;32.650;-16.902;2022-08-21T05:36:35;101762.19;;;20.44;53.81
61026;BME280;46911;32.650;-16.902;2022-08-21T05:38:36;101772.31;;;20.41;53.88
61026;BME280;46911;32.650;-16.902;2022-08-21T05:40:42;101776.75;;;20.43;53.92
61026;BME280;46911;32.650;-16.902;2022-08-21T05:42:45;101777.16;;;20.48;54.68
61026;BME280;46911;32.650;-16.902;2022-08-21T05:44:49;101770.91;;;20.47;54.46
61026;BME280;46911;32.650;-16.902;2022-08-21T05:46:49;101780.88;;;20.47;54.92
61026;BME280;46911;32.650;-16.902;2022-08-21T05:48:52;101779.88;;;20.48;54.96
61026;BME280;46911;32.650;-16.902;2022-08-21T05:50:53;101785.16;;;20.49;54.09
61026;BME280;46911;32.650;-16.902;2022-08-21T05:52:54;101793.13;;;20.51;53.23
61026;BME280;46911;32.650;-16.902;2022-08-21T05:54:57;101809.13;;;20.54;53.38
61026;BME280;46911;32.650;-16.902;2022-08-21T05:56:58;101799.13;;;20.54;52.85
61026;BME280;46911;32.650;-16.902;2022-08-21T05:58:58;101809.97;;;20.54;52.78
61026;BME280;46911;32.650;-16.902;2022-08-21T06:01:00;101812.69;;;20.54;52.82
61026;BME280;46911;32.650;-16.902;2022-08-21T06:03:01;101809.00;;;20.55;52.98
61026;BME280;46911;32.650;-16.902;2022-08-21T06:05:04;101817.13;;;20.55;53.97
61026;BME280;46911;32.650;-16.902;2022-08-21T06:07:05;101828.66;;;20.57;55.91
61026;BME280;46911;32.650;-16.902;2022-08-21T06:09:06;101826.53;;;20.61;60.12
61026;BME280;46911;32.650;-16.902;2022-08-21T06:11:07;101827.09;;;20.65;62.29
61026;BME280;46911;32.650;-16.902;2022-08-21T06:13:08;101819.13;;;20.63;62.52
61026;BME280;46911;32.650;-16.902;2022-08-21T06:15:11;101816.25;;;20.65;63.58
61026;BME280;46911;32.650;-16.902;2022-08-21T06:17:14;101814.38;;;20.65;64.38
61026;BME280;46911;32.650;-16.902;2022-08-21T06:19:15;101801.16;;;20.72;67.12
61026;BME280;46911;32.650;-16.902;2022-08-21T06:21:16;101803.44;;;20.77;69.08
61026;BME280;46911;32.650;-16.902;2022-08-21T06:23:18;101797.72;;;20.80;69.29
61026;BME280;46911;32.650;-16.902;2022-08-21T06:25:21;101799.44;;;20.81;68.71
61026;BME280;46911;32.650;-16.902;2022-08-21T06:27:21;101794.44;;;20.86;69.12
61026;BME280;46911;32.650;-16.902;2022-08-21T06:29:22;101803.41;;;20.86;69.52
61026;BME280;46911;32.650;-16.902;2022-08-21T06:31:24;101790.84;;;20.85;69.59
61026;BME280;46911;32.650;-16.902;2022-08-21T06:33:27;101781.00;;;20.84;69.48
61026;BME280;46911;32.650;-16.902;2022-08-21T06:35:28;101781.00;;;20.84;69.28
61026;BME280;46911;32.650;-16.902;2022-08-21T06:37:29;101783.72;;;20.84;69.61
61026;BME280;46911;32.650;-16.902;2022-08-21T06:39:32;101797.25;;;20.84;69.86
61026;BME280;46911;32.650;-16.902;2022-08-21T06:41:33;101799.13;;;20.84;69.69
61026;BME280;46911;32.650;-16.902;2022-08-21T06:43:37;101795.56;;;20.83;69.12
61026;BME280;46911;32.650;-16.902;2022-08-21T06:45:38;101801.84;;;20.84;68.64
61026;BME280;46911;32.650;-16.902;2022-08-21T06:47:39;101800.13;;;20.83;68.29
61026;BME280;46911;32.650;-16.902;2022-08-21T06:49:41;101799.00;;;20.85;68.58
61026;BME280;46911;32.650;-16.902;2022-08-21T06:51:44;101796.00;;;20.88;68.40
61026;BME280;46911;32.650;-16.902;2022-08-21T06:53:45;101794.97;;;20.89;68.34
61026;BME280;46911;32.650;-16.902;2022-08-21T06:55:51;101793.97;;;20.90;67.56
61026;BME280;46911;32.650;-16.902;2022-08-21T06:57:55;101781.28;;;20.91;66.28
61026;BME280;46911;32.650;-16.902;2022-08-21T06:59:59;101781.28;;;20.91;65.33
61026;BME280;46911;32.650;-16.902;2022-08-21T07:02:05;101780.28;;;20.92;64.66
61026;BME280;46911;32.650;-16.902;2022-08-21T07:04:06;101772.13;;;20.92;64.30
61026;BME280;46911;32.650;-16.902;2022-08-21T07:06:07;101775.72;;;20.93;63.97
61026;BME280;46911;32.650;-16.902;2022-08-21T07:08:11;101770.00;;;20.96;64.12
61026;BME280;46911;32.650;-16.902;2022-08-21T07:10:14;101769.00;;;20.97;64.50
61026;BME280;46911;32.650;-16.902;2022-08-21T07:12:20;101769.84;;;20.97;64.54
61026;BME280;46911;32.650;-16.902;2022-08-21T07:14:21;101766.97;;;20.99;64.42
61026;BME280;46911;32.650;-16.902;2022-08-21T07:16:25;101764.00;;;21.02;63.91
61026;BME280;46911;32.650;-16.902;2022-08-21T07:18:25;101762.81;;;21.04;63.36
61026;BME280;46911;32.650;-16.902;2022-08-21T07:20:31;101761.53;;;21.09;62.02
61026;BME280;46911;32.650;-16.902;2022-08-21T07:22:39;101755.81;;;21.12;61.12
61026;BME280;46911;32.650;-16.902;2022-08-21T07:24:43;101757.22;;;21.16;61.31
61026;BME280;46911;32.650;-16.902;2022-08-21T07:26:43;101750.78;;;21.17;61.45
61026;BME280;46911;32.650;-16.902;2022-08-21T07:28:47;101747.63;;;21.21;61.52
61026;BME280;46911;32.650;-16.902;2022-08-21T07:30:51;101746.16;;;21.27;62.06
61026;BME280;46911;32.650;-16.902;2022-08-21T07:32:55;101744.13;;;21.39;64.55
61026;BME280;46911;32.650;-16.902;2022-08-21T07:34:58;101743.38;;;21.47;64.99
61026;BME280;46911;32.650;-16.902;2022-08-21T07:37:00;101744.88;;;21.59;65.46
61026;BME280;46911;32.650;-16.902;2022-08-21T07:39:01;101737.56;;;21.69;66.31
61026;BME280;46911;32.650;-16.902;2022-08-21T07:41:15;101723.78;;;21.81;66.98
61026;BME280;46911;32.650;-16.902;2022-08-21T07:43:19;101719.97;;;21.92;66.42
61026;BME280;46911;32.650;-16.902;2022-08-21T07:45:22;101713.91;;;21.98;62.86
61026;BME280;46911;32.650;-16.902;2022-08-21T07:47:26;101715.53;;;22.08;60.31
61026;BME280;46911;32.650;-16.902;2022-08-21T07:49:27;101709.16;;;22.18;58.16
61026;BME280;46911;32.650;-16.902;2022-08-21T07:51:28;101704.03;;;22.33;52.71
61026;BME280;46911;32.650;-16.902;2022-08-21T07:53:34;101702.25;;;22.42;50.09
61026;BME280;46911;32.650;-16.902;2022-08-21T07:55:37;101712.19;;;22.51;50.07
61026;BME280;46911;32.650;-16.902;2022-08-21T07:57:40;101720.44;;;22.67;50.51
61026;BME280;46911;32.650;-16.902;2022-08-21T07:59:41;101713.53;;;22.73;50.33
61026;BME280;46911;32.650;-16.902;2022-08-21T08:01:41;101722.91;;;22.79;48.89
61026;BME280;46911;32.650;-16.902;2022-08-21T08:03:42;101727.34;;;22.80;48.75
61026;BME280;46911;32.650;-16.902;2022-08-21T08:05:45;101734.88;;;22.94;49.43
61026;BME280;46911;32.650;-16.902;2022-08-21T08:07:45;101735.28;;;23.07;49.75
61026;BME280;46911;32.650;-16.902;2022-08-21T08:09:50;101742.22;;;23.20;49.86
61026;BME280;46911;32.650;-16.902;2022-08-21T08:11:53;101741.06;;;23.31;50.42
61026;BME280;46911;32.650;-16.902;2022-08-21T08:13:54;101750.09;;;23.39;50.58
61026;BME280;46911;32.650;-16.902;2022-08-21T08:15:57;101743.50;;;23.50;50.83
61026;BME280;46911;32.650;-16.902;2022-08-21T08:18:01;101748.50;;;23.63;50.73
61026;BME280;46911;32.650;-16.902;2022-08-21T08:20:02;101749.22;;;23.73;50.26
61026;BME280;46911;32.650;-16.902;2022-08-21T08:22:11;101737.81;;;23.86;48.76
61026;BME280;46911;32.650;-16.902;2022-08-21T08:24:12;101739.44;;;23.97;47.40
61026;BME280;46911;32.650;-16.902;2022-08-21T08:26:18;101738.44;;;24.06;47.44
61026;BME280;46911;32.650;-16.902;2022-08-21T08:28:19;101736.38;;;24.17;46.82
61026;BME280;46911;32.650;-16.902;2022-08-21T08:30:22;101734.16;;;24.29;46.56
61026;BME280;46911;32.650;-16.902;2022-08-21T08:32:24;101730.22;;;24.39;46.52
61026;BME280;46911;32.650;-16.902;2022-08-21T08:34:24;101728.38;;;24.48;46.43
61026;BME280;46911;32.650;-16.902;2022-08-21T08:36:31;101742.16;;;24.55;46.29
61026;BME280;46911;32.650;-16.902;2022-08-21T08:38:34;101733.28;;;24.61;46.38
61026;BME280;46911;32.650;-16.902;2022-08-21T08:42:36;101737.72;;;24.70;46.32
61026;BME280;46911;32.650;-16.902;2022-08-21T08:44:37;101748.31;;;24.73;46.23
61026;BME280;46911;32.650;-16.902;2022-08-21T08:46:46;101743.53;;;24.76;45.90
61026;BME280;46911;32.650;-16.902;2022-08-21T08:49:10;101741.31;;;24.79;45.88
61026;BME280;46911;32.650;-16.902;2022-08-21T08:53:52;101743.16;;;24.95;45.28
61026;BME280;46911;32.650;-16.902;2022-08-21T08:55:55;101746.88;;;25.02;45.04
61026;BME280;46911;32.650;-16.902;2022-08-21T08:57:59;101749.56;;;25.11;44.98
61026;BME280;46911;32.650;-16.902;2022-08-21T09:00:04;101743.41;;;25.17;43.46
61026;BME280;46911;32.650;-16.902;2022-08-21T09:02:06;101738.94;;;25.24;43.23
61026;BME280;46911;32.650;-16.902;2022-08-21T09:04:09;101736.06;;;25.34;42.87
61026;BME280;46911;32.650;-16.902;2022-08-21T09:08:38;101729.63;;;25.58;43.10
61026;BME280;46911;32.650;-16.902;2022-08-21T09:10:50;101733.44;;;25.72;43.20
61026;BME280;46911;32.650;-16.902;2022-08-21T09:13:12;101734.59;;;25.86;43.13
61026;BME280;46911;32.650;-16.902;2022-08-21T09:15:32;101726.63;;;25.99;43.11
61026;BME280;46911;32.650;-16.902;2022-08-21T09:21:46;101753.88;;;26.16;39.58
61026;BME280;46911;32.650;-16.902;2022-08-21T09:28:12;101790.34;;;26.31;42.85
61026;BME280;46911;32.650;-16.902;2022-08-21T09:30:15;101799.81;;;26.44;42.32
61026;BME280;46911;32.650;-16.902;2022-08-21T09:32:19;101816.53;;;26.49;42.89
61026;BME280;46911;32.650;-16.902;2022-08-21T09:34:27;101816.38;;;26.65;42.80
61026;BME280;46911;32.650;-16.902;2022-08-21T09:36:39;101819.50;;;26.85;42.77
61026;BME280;46911;32.650;-16.902;2022-08-21T09:38:51;101830.75;;;27.05;42.37
61026;BME280;46911;32.650;-16.902;2022-08-21T09:40:57;101841.72;;;27.05;42.07
61026;BME280;46911;32.650;-16.902;2022-08-21T09:45:12;101831.53;;;27.29;42.39
61026;BME280;46911;32.650;-16.902;2022-08-21T09:47:14;101816.66;;;27.47;42.55
61026;BME280;46911;32.650;-16.902;2022-08-21T09:49:31;101820.69;;;27.66;40.96
61026;BME280;46911;32.650;-16.902;2022-08-21T09:51:33;101830.88;;;27.72;36.80
61026;BME280;46911;32.650;-16.902;2022-08-21T09:53:39;101826.81;;;27.83;37.11
61026;BME280;46911;32.650;-16.902;2022-08-21T09:58:07;101809.34;;;27.69;43.22
61026;BME280;46911;32.650;-16.902;2022-08-21T10:02:27;101805.19;;;28.10;43.51
61026;BME280;46911;32.650;-16.902;2022-08-21T10:04:34;101804.44;;;28.16;44.22
61026;BME280;46911;32.650;-16.902;2022-08-21T10:06:35;101805.34;;;28.23;43.87
61026;BME280;46911;32.650;-16.902;2022-08-21T10:08:38;101798.28;;;28.35;41.80
61026;BME280;46911;32.650;-16.902;2022-08-21T10:10:39;101795.94;;;28.32;41.91
61026;BME280;46911;32.650;-16.902;2022-08-21T10:12:51;101812.34;;;28.26;40.80
61026;BME280;46911;32.650;-16.902;2022-08-21T10:17:57;101811.16;;;28.13;42.38
61026;BME280;46911;32.650;-16.902;2022-08-21T10:19:52;101800.53;;;28.25;42.03
61026;BME280;46911;32.650;-16.902;2022-08-21T10:24:28;101788.28;;;28.49;41.05
61026;BME280;46911;32.650;-16.902;2022-08-21T10:28:32;101780.97;;;28.85;39.40
61026;BME280;46911;32.650;-16.902;2022-08-21T10:33:00;101768.66;;;29.02;38.38
61026;BME280;46911;32.650;-16.902;2022-08-21T10:35:20;101764.88;;;29.10;38.94
61026;BME280;46911;32.650;-16.902;2022-08-21T10:39:34;101766.84;;;29.23;37.70
61026;BME280;46911;32.650;-16.902;2022-08-21T10:46:29;101741.69;;;29.54;35.77
61026;BME280;46911;32.650;-16.902;2022-08-21T10:55:17;101727.00;;;30.16;35.78
61026;BME280;46911;32.650;-16.902;2022-08-21T11:00:03;101727.88;;;30.63;35.96
61026;BME280;46911;32.650;-16.902;2022-08-21T11:02:18;101720.22;;;30.85;35.15
61026;BME280;46911;32.650;-16.902;2022-08-21T11:06:25;101724.88;;;30.85;36.15
61026;BME280;46911;32.650;-16.902;2022-08-21T11:08:29;101718.53;;;30.78;36.27
61026;BME280;46911;32.650;-16.902;2022-08-21T11:10:39;101722.75;;;30.94;37.54
61026;BME280;46911;32.650;-16.902;2022-08-21T11:12:48;101714.75;;;30.65;36.35
61026;BME280;46911;32.650;-16.902;2022-08-21T11:14:59;101715.59;;;30.66;36.48
61026;BME280;46911;32.650;-16.902;2022-08-21T11:17:07;101710.66;;;30.81;36.36